createdAt,value
2019-06-01T04:32:00.923Z,10.80
2019-06-01T04:34:29.980Z,10.80
2019-06-01T04:36:58.921Z,10.90
2019-06-01T04:39:28.003Z,10.90
2019-06-01T04:41:56.916Z,11.00
2019-06-01T04:44:26.159Z,11.00
2019-06-01T04:46:55.310Z,11.10
2019-06-01T04:49:24.383Z,11.10
2019-06-01T04:51:53.414Z,11.20
2019-06-01T04:54:22.404Z,11.30
2019-06-01T04:56:51.383Z,11.30
2019-06-01T04:59:20.391Z,11.40
2019-06-01T05:01:49.447Z,11.50
2019-06-01T05:04:18.563Z,11.70
2019-06-01T05:06:47.655Z,11.80
2019-06-01T05:09:16.660Z,12.00
2019-06-01T05:11:45.685Z,12.10
2019-06-01T05:14:16.321Z,12.20
2019-06-01T05:16:45.298Z,12.40
2019-06-01T05:19:14.359Z,12.50
2019-06-01T05:21:43.478Z,12.50
2019-06-01T05:24:12.724Z,12.70
2019-06-01T05:26:42.021Z,12.70
2019-06-01T05:29:11.673Z,12.90
2019-06-01T05:31:40.809Z,13.00
2019-06-01T05:34:09.802Z,13.10
2019-06-01T05:36:38.720Z,13.20
2019-06-01T05:39:08.368Z,13.30
2019-06-01T05:41:37.630Z,13.50
2019-06-01T05:44:06.683Z,13.60
2019-06-01T05:46:35.800Z,13.60
2019-06-01T05:49:05.013Z,13.70
2019-06-01T05:51:34.045Z,13.90
2019-06-01T05:54:03.003Z,13.90
2019-06-01T05:56:32.003Z,14.00
2019-06-01T05:59:01.022Z,14.10
2019-06-01T06:01:30.099Z,14.10
2019-06-01T06:03:59.026Z,14.20
2019-06-01T06:06:27.962Z,14.30
2019-06-01T06:08:57.034Z,14.40
2019-06-01T06:11:26.134Z,14.50
2019-06-01T06:13:55.280Z,14.60
2019-06-01T06:16:24.325Z,14.80
2019-06-01T06:18:53.450Z,14.80
2019-06-01T06:21:22.593Z,14.90
2019-06-01T06:23:53.909Z,15.00
2019-06-01T06:26:22.968Z,15.10
2019-06-01T06:28:52.157Z,15.20
2019-06-01T06:31:21.227Z,15.30
2019-06-01T06:33:56.699Z,15.40
2019-06-01T06:36:21.795Z,15.60
2019-06-01T06:38:51.251Z,15.80
2019-06-01T06:41:20.504Z,15.90
2019-06-01T06:43:50.080Z,16.10
2019-06-01T06:46:19.334Z,16.30
2019-06-01T06:48:48.964Z,16.30
2019-06-01T06:51:19.304Z,16.50
2019-06-01T06:53:48.806Z,16.70
2019-06-01T06:56:18.019Z,16.90
2019-06-01T06:58:47.122Z,17.10
2019-06-01T07:01:17.032Z,17.10
2019-06-01T07:03:46.678Z,17.30
2019-06-01T07:06:15.886Z,17.70
2019-06-01T07:08:45.023Z,18.10
2019-06-01T07:11:13.980Z,18.30
2019-06-01T07:13:43.011Z,18.50
2019-06-01T07:16:12.139Z,18.80
2019-06-01T07:18:41.133Z,19.10
2019-06-01T07:21:10.293Z,19.50
2019-06-01T07:23:39.291Z,19.80
2019-06-01T07:26:08.327Z,20.10
2019-06-01T07:28:37.408Z,20.30
2019-06-01T07:31:06.482Z,20.40
2019-06-01T07:33:35.504Z,20.80
2019-06-01T07:36:04.545Z,21.00
2019-06-01T07:38:34.103Z,21.40
2019-06-01T07:41:03.191Z,22.00
2019-06-01T07:43:33.255Z,22.30
2019-06-01T07:46:02.419Z,22.50
2019-06-01T07:48:31.429Z,22.90
2019-06-01T07:51:00.568Z,23.10
2019-06-01T07:53:29.675Z,23.40
2019-06-01T07:55:58.660Z,23.70
2019-06-01T07:58:28.794Z,23.80
2019-06-01T08:00:58.215Z,23.90
2019-06-01T08:03:29.461Z,24.00
2019-06-01T08:05:58.100Z,24.30
2019-06-01T08:08:27.380Z,24.40
2019-06-01T08:10:56.395Z,24.60
2019-06-01T08:13:29.984Z,24.60
2019-06-01T08:15:56.916Z,24.50
2019-06-01T08:18:26.052Z,24.80
2019-06-01T08:20:55.129Z,24.90
2019-06-01T08:23:24.189Z,25.10
2019-06-01T08:25:53.218Z,25.30
2019-06-01T08:28:22.420Z,25.50
2019-06-01T08:30:51.454Z,25.80
2019-06-01T08:33:20.559Z,25.70
2019-06-01T08:35:49.843Z,25.80
2019-06-01T08:38:18.845Z,26.00
2019-06-01T08:40:47.915Z,26.50
2019-06-01T08:43:17.015Z,26.70
2019-06-01T08:45:46.090Z,26.70
2019-06-01T08:48:15.159Z,26.80
2019-06-01T08:50:46.127Z,27.00
2019-06-01T08:53:15.018Z,27.40
2019-06-01T08:55:44.440Z,27.40
2019-06-01T08:58:13.483Z,27.60
2019-06-01T09:00:42.791Z,27.90
2019-06-01T09:03:12.116Z,28.00
2019-06-01T09:05:41.288Z,28.30
2019-06-01T09:08:10.533Z,28.10
2019-06-01T09:10:39.582Z,28.60
2019-06-01T09:13:09.009Z,28.70
2019-06-01T09:15:38.232Z,28.60
2019-06-01T09:18:07.275Z,28.60
2019-06-01T09:20:38.833Z,28.90
2019-06-01T09:23:07.332Z,29.00
2019-06-01T09:25:36.508Z,28.70
2019-06-01T09:28:05.631Z,28.70
2019-06-01T09:30:35.913Z,28.90
2019-06-01T09:33:05.479Z,29.10
2019-06-01T09:35:52.764Z,29.40
2019-06-01T09:38:05.475Z,29.40
2019-06-01T09:40:35.076Z,29.30
2019-06-01T09:43:04.346Z,29.30
2019-06-01T09:45:34.488Z,29.60
2019-06-01T09:48:03.562Z,29.70
2019-06-01T09:50:33.455Z,29.80
2019-06-01T09:53:02.639Z,30.40
2019-06-01T09:55:32.667Z,30.40
2019-06-01T09:58:02.440Z,30.50
2019-06-01T10:00:32.367Z,30.60
2019-06-01T10:03:06.813Z,30.20
2019-06-01T10:06:01.903Z,30.50
2019-06-01T10:08:25.314Z,30.60
2019-06-01T10:10:59.236Z,30.70
2019-06-01T10:13:28.224Z,30.70
2019-06-01T10:16:03.383Z,31.00
2019-06-01T10:18:41.375Z,31.40
2019-06-01T10:21:10.577Z,31.60
2019-06-01T10:23:42.775Z,31.60
2019-06-01T10:26:19.578Z,31.50
2019-06-01T10:29:09.148Z,31.70
2019-06-01T10:31:45.554Z,32.20
2019-06-01T10:34:20.785Z,31.20
2019-06-01T10:37:02.826Z,31.50
2019-06-01T10:39:41.811Z,31.80
2019-06-01T10:42:16.898Z,31.90
2019-06-01T10:44:49.388Z,32.10
2019-06-01T10:47:18.385Z,32.40
2019-06-01T10:49:47.491Z,31.90
2019-06-01T10:52:16.412Z,31.50
2019-06-01T10:54:45.405Z,31.80
2019-06-01T10:57:22.413Z,32.20
2019-06-01T10:59:51.423Z,33.00
2019-06-01T11:02:20.460Z,33.40
2019-06-01T11:04:49.535Z,33.50
2019-06-01T11:07:21.275Z,33.20
2019-06-01T11:09:50.374Z,33.80
2019-06-01T11:12:19.450Z,34.50
2019-06-01T11:14:48.675Z,34.80
2019-06-01T11:17:17.698Z,34.80
2019-06-01T11:19:46.831Z,34.60
2019-06-01T11:22:15.807Z,34.60
2019-06-01T11:24:45.486Z,34.20
2019-06-01T11:27:15.020Z,34.10
2019-06-01T11:29:51.269Z,34.90
2019-06-01T11:32:15.932Z,34.60
2019-06-01T11:34:45.563Z,34.50
2019-06-01T11:37:15.911Z,34.90
2019-06-01T11:39:45.647Z,34.90
2019-06-01T11:42:15.286Z,35.70
2019-06-01T11:44:44.938Z,35.80
2019-06-01T11:47:14.954Z,35.70
2019-06-01T11:49:45.040Z,35.50
2019-06-01T11:52:14.926Z,35.30
2019-06-01T11:54:45.455Z,35.60
2019-06-01T11:57:15.395Z,35.70
2019-06-01T11:59:45.732Z,35.60
2019-06-01T12:02:15.503Z,35.90
2019-06-01T12:04:46.285Z,35.30
2019-06-01T12:07:17.913Z,35.60
2019-06-01T12:09:46.674Z,35.60
2019-06-01T12:12:16.310Z,35.60
2019-06-01T12:14:46.769Z,35.30
2019-06-01T12:17:16.574Z,36.10
2019-06-01T12:19:46.937Z,36.40
2019-06-01T12:22:16.851Z,35.60
2019-06-01T12:24:47.366Z,35.10
2019-06-01T12:27:17.393Z,35.10
2019-06-01T12:29:48.257Z,35.40
2019-06-01T12:32:18.321Z,35.00
2019-06-01T12:34:48.445Z,35.60
2019-06-01T12:37:35.936Z,36.20
2019-06-01T12:39:52.135Z,35.90
2019-06-01T12:42:19.216Z,35.60
2019-06-01T12:44:48.265Z,35.30
2019-06-01T12:47:17.469Z,36.10
2019-06-01T12:49:46.474Z,36.10
2019-06-01T12:52:15.475Z,35.50
2019-06-01T12:54:44.717Z,35.20
2019-06-01T12:57:14.273Z,35.60
2019-06-01T12:59:43.348Z,35.50
2019-06-01T13:02:12.448Z,34.80
2019-06-01T13:04:42.791Z,35.20
2019-06-01T13:07:12.043Z,35.10
2019-06-01T13:09:41.991Z,35.20
2019-06-01T13:12:11.126Z,34.70
2019-06-01T13:14:41.130Z,34.60
2019-06-01T13:17:10.980Z,34.00
2019-06-01T13:19:41.261Z,33.80
2019-06-01T13:22:11.214Z,34.20
2019-06-01T13:24:41.541Z,35.40
2019-06-01T13:27:12.829Z,35.50
2019-06-01T13:29:42.356Z,35.30
2019-06-01T13:32:11.744Z,35.10
2019-06-01T13:34:42.503Z,34.90
2019-06-01T13:37:12.130Z,34.90
2019-06-01T13:39:41.215Z,35.50
2019-06-01T13:42:10.648Z,35.20
2019-06-01T13:44:40.180Z,35.20
2019-06-01T13:47:09.631Z,35.00
2019-06-01T13:49:38.987Z,35.00
2019-06-01T13:52:08.519Z,34.90
2019-06-01T13:54:40.130Z,35.10
2019-06-01T13:57:09.019Z,35.50
2019-06-01T13:59:38.435Z,34.70
2019-06-01T14:02:08.039Z,35.20
2019-06-01T14:04:37.566Z,35.20
2019-06-01T14:07:06.983Z,35.20
2019-06-01T14:09:36.355Z,34.30
2019-06-01T14:12:05.684Z,34.00
2019-06-01T14:14:35.109Z,34.20
2019-06-01T14:17:04.245Z,34.70
2019-06-01T14:19:33.410Z,35.50
2019-06-01T14:22:02.477Z,35.40
2019-06-01T14:24:31.523Z,34.60
2019-06-01T14:27:00.727Z,34.20
2019-06-01T14:29:29.714Z,34.10
2019-06-01T14:31:58.999Z,33.80
2019-06-01T14:34:28.490Z,34.10
2019-06-01T14:36:57.849Z,34.30
2019-06-01T14:39:26.965Z,34.50
2019-06-01T14:41:57.612Z,34.30
2019-06-01T14:44:26.654Z,33.80
2019-06-01T14:47:03.847Z,34.10
2019-06-01T14:49:26.850Z,33.40
2019-06-01T14:51:57.845Z,33.30
2019-06-01T14:54:47.537Z,32.80
2019-06-01T14:57:17.434Z,32.30
2019-06-01T14:59:47.824Z,32.10
2019-06-01T15:02:17.151Z,32.60
2019-06-01T15:04:48.197Z,32.70
2019-06-01T15:07:17.851Z,32.50
2019-06-01T15:09:48.157Z,32.40
2019-06-01T15:12:17.332Z,32.80
2019-06-01T15:14:46.352Z,32.70
2019-06-01T15:17:15.845Z,32.80
2019-06-01T15:19:45.354Z,32.50
2019-06-01T15:22:14.999Z,33.00
2019-06-01T15:24:44.248Z,32.60
2019-06-01T15:27:13.887Z,32.50
2019-06-01T15:29:43.446Z,32.80
2019-06-01T15:32:12.823Z,32.10
2019-06-01T15:34:42.418Z,31.90
2019-06-01T15:37:12.014Z,31.90
2019-06-01T15:39:41.587Z,31.30
2019-06-01T15:42:11.281Z,31.10
2019-06-01T15:44:40.787Z,32.60
2019-06-01T15:47:11.310Z,32.40
2019-06-01T15:49:41.239Z,31.70
2019-06-01T15:52:13.678Z,31.20
2019-06-01T15:54:43.423Z,30.90
2019-06-01T15:57:12.930Z,30.80
2019-06-01T15:59:42.581Z,30.50
2019-06-01T16:02:15.338Z,30.70
2019-06-01T16:04:44.342Z,30.40
2019-06-01T16:07:13.247Z,30.40
2019-06-01T16:09:43.441Z,29.50
2019-06-01T16:12:12.609Z,29.20
2019-06-01T16:14:41.533Z,28.90
2019-06-01T16:17:10.754Z,29.00
2019-06-01T16:19:39.764Z,29.00
2019-06-01T16:22:08.890Z,28.70
2019-06-01T16:24:37.922Z,28.20
2019-06-01T16:27:07.021Z,28.00
2019-06-01T16:29:36.105Z,27.60
2019-06-01T16:32:05.265Z,27.40
2019-06-01T16:34:34.324Z,26.90
2019-06-01T16:37:03.467Z,26.40
2019-06-01T16:39:32.459Z,26.20
2019-06-01T16:42:02.106Z,26.10
2019-06-01T16:44:31.179Z,25.90
2019-06-01T16:47:00.150Z,25.70
2019-06-01T16:49:29.158Z,25.60
2019-06-01T16:51:59.369Z,25.50
2019-06-01T16:54:30.023Z,25.20
2019-06-01T16:56:59.107Z,25.00
2019-06-01T16:59:28.161Z,24.90
2019-06-01T17:01:57.164Z,24.80
2019-06-01T17:04:26.328Z,24.80
2019-06-01T17:06:56.527Z,24.70
2019-06-01T17:09:25.652Z,24.80
2019-06-01T17:11:54.727Z,24.90
2019-06-01T17:14:23.827Z,24.70
2019-06-01T17:16:57.111Z,24.60
2019-06-01T17:19:26.184Z,24.30
2019-06-01T17:21:55.344Z,24.30
2019-06-01T17:24:24.386Z,24.20
2019-06-01T17:26:53.514Z,24.20
2019-06-01T17:29:22.559Z,24.10
2019-06-01T17:31:54.669Z,24.20
2019-06-01T17:34:22.397Z,24.10
2019-06-01T17:36:51.509Z,24.10
2019-06-01T17:39:20.660Z,23.90
2019-06-01T17:41:49.678Z,23.90
2019-06-01T17:44:18.781Z,23.90
2019-06-01T17:46:53.355Z,23.70
2019-06-01T17:49:18.639Z,23.60
2019-06-01T17:51:47.791Z,23.50
2019-06-01T17:54:16.797Z,23.50
2019-06-01T17:56:45.895Z,23.40
2019-06-01T17:59:15.126Z,23.40
2019-06-01T18:01:44.246Z,23.20
2019-06-01T18:04:13.380Z,23.10
2019-06-01T18:06:42.446Z,23.10
2019-06-01T18:09:12.272Z,23.00
2019-06-01T18:11:41.516Z,22.90
2019-06-01T18:14:10.755Z,22.90
2019-06-01T18:16:39.763Z,22.80
2019-06-01T18:19:08.825Z,22.70
2019-06-01T18:21:38.087Z,22.60
2019-06-01T18:24:08.313Z,22.40
2019-06-01T18:26:37.894Z,22.50
2019-06-01T18:29:06.976Z,22.50
2019-06-01T18:31:36.242Z,22.40
2019-06-01T18:34:05.694Z,22.30
2019-06-01T18:36:34.827Z,22.30
2019-06-01T18:39:05.337Z,22.20
2019-06-01T18:41:34.295Z,22.00
2019-06-01T18:44:03.567Z,21.80
2019-06-01T18:46:33.029Z,21.70
2019-06-01T18:49:03.699Z,21.50
2019-06-01T18:51:32.826Z,21.50
2019-06-01T18:54:01.824Z,21.30
2019-06-01T18:56:31.643Z,21.20
2019-06-01T18:59:00.965Z,21.10
2019-06-01T19:01:30.059Z,21.10
2019-06-01T19:03:59.239Z,21.00
2019-06-01T19:06:28.480Z,21.00
2019-06-01T19:08:57.538Z,20.80
2019-06-01T19:11:35.447Z,20.70
2019-06-01T19:13:57.464Z,20.70
2019-06-01T19:16:26.477Z,20.60
2019-06-01T19:18:55.431Z,20.50
2019-06-01T19:21:24.549Z,20.40
2019-06-01T19:23:53.982Z,20.30
2019-06-01T19:26:23.162Z,20.20
2019-06-01T19:28:52.331Z,20.10
2019-06-01T19:31:21.440Z,20.00
2019-06-01T19:33:50.626Z,19.90
2019-06-01T19:36:20.719Z,19.90
2019-06-01T19:38:50.549Z,19.70
2019-06-01T19:41:19.601Z,19.60
2019-06-01T19:43:48.785Z,19.50
2019-06-01T19:46:18.079Z,19.40
2019-06-01T19:48:47.162Z,19.40
2019-06-01T19:51:16.766Z,19.30
2019-06-01T19:53:45.796Z,19.20
2019-06-01T19:56:15.027Z,19.10
2019-06-01T19:58:44.067Z,19.00
2019-06-01T20:01:14.202Z,19.00
2019-06-01T20:03:43.523Z,18.80
2019-06-01T20:06:12.887Z,18.90
2019-06-01T20:08:42.088Z,18.70
2019-06-01T20:11:11.203Z,18.70
2019-06-01T20:13:40.266Z,18.50
2019-06-01T20:16:10.662Z,18.50
2019-06-01T20:18:39.879Z,18.40
2019-06-01T20:21:08.928Z,18.40
2019-06-01T20:23:37.939Z,18.30
2019-06-01T20:26:07.015Z,18.30
2019-06-01T20:28:36.048Z,18.20
2019-06-01T20:31:05.152Z,18.20
2019-06-01T20:33:34.324Z,18.00
2019-06-01T20:36:03.258Z,17.90
2019-06-01T20:38:32.245Z,18.00
2019-06-01T20:41:01.323Z,17.90
2019-06-01T20:43:30.453Z,18.00
2019-06-01T20:45:59.450Z,17.90
2019-06-01T20:48:28.634Z,17.90
2019-06-01T20:50:57.649Z,17.80
2019-06-01T20:53:26.649Z,17.70
2019-06-01T20:55:55.645Z,17.60
2019-06-01T20:58:25.026Z,17.60
2019-06-01T21:00:54.150Z,17.50
2019-06-01T21:03:24.351Z,17.50
2019-06-01T21:05:53.847Z,17.60
2019-06-01T21:08:24.038Z,17.50
2019-06-01T21:10:53.424Z,17.50
2019-06-01T21:13:22.699Z,17.40
2019-06-01T21:15:51.662Z,17.20
2019-06-01T21:18:20.995Z,17.30
2019-06-01T21:20:50.519Z,17.20
2019-06-01T21:23:20.677Z,17.10
2019-06-01T21:25:49.929Z,17.10
2019-06-01T21:28:20.490Z,17.00
2019-06-01T21:30:49.940Z,17.00
2019-06-01T21:33:19.767Z,17.00
2019-06-01T21:35:49.023Z,16.90
2019-06-01T21:38:19.264Z,16.90
2019-06-01T21:40:48.425Z,16.90
2019-06-01T21:43:27.425Z,16.80
2019-06-01T21:45:48.219Z,16.80
2019-06-01T21:48:17.503Z,16.80
2019-06-01T21:50:46.542Z,16.80
2019-06-01T21:53:15.991Z,16.80
2019-06-01T21:55:44.952Z,16.60
2019-06-01T21:58:14.061Z,16.60
2019-06-01T22:00:43.485Z,16.60
2019-06-01T22:03:12.541Z,16.60
2019-06-01T22:05:41.517Z,16.60
2019-06-01T22:08:10.734Z,16.50
2019-06-01T22:10:39.920Z,16.40
2019-06-01T22:13:18.173Z,16.30
2019-06-01T22:15:39.588Z,16.20
2019-06-01T22:18:08.736Z,16.20
2019-06-01T22:20:37.856Z,16.20
2019-06-01T22:23:06.960Z,16.10
2019-06-01T22:25:35.903Z,16.10
2019-06-01T22:28:05.109Z,16.20
